Time,TemperatureF,DewpointF,PressureIn,WindDirection,WindDirectionDegrees,WindSpeedMPH,WindSpeedGustMPH,Humidity,HourlyPrecipIn,Conditions,Clouds,dailyrainin,SolarRadiationWatts/m^2,SoftwareType,DateUTC
2014-08-21 00:00:00,76.1,67.2,29.85,SE,130,0.0,0.0,74,0.00,,,0.00,0,Wunderground v.1.15,2014-08-21 10:00:00,
2014-08-21 00:30:00,75.3,65.6,29.85,SE,130,0.0,0.0,72,0.00,,,0.00,0,Wunderground v.1.15,2014-08-21 10:30:00,
2014-08-21 01:00:00,74.9,65.3,29.84,SE,130,0.0,0.0,72,0.00,,,0.00,0,Wunderground v.1.15,2014-08-21 11:00:00,
2014-08-21 01:30:00,74.6,65.8,29.84,SE,130,0.0,0.0,74,0.00,,,0.00,0,Wunderground v.1.15,2014-08-21 11:30:00,
2014-08-21 02:00:00,74.6,65.8,29.83,SE,130,0.0,0.0,74,0.00,,,0.00,0,Wunderground v.1.15,2014-08-21 12:00:00,
2014-08-21 02:30:00,74.6,65.4,29.83,SE,130,1.0,2.0,73,0.00,,,0.00,0,Wunderground v.1.15,2014-08-21 12:30:00,
2014-08-21 03:00:00,74.6,66.1,29.83,SE,130,0.0,1.0,75,0.00,,,0.00,0,Wunderground v.1.15,2014-08-21 13:00:00,
2014-08-21 03:30:00,74.0,65.6,29.83,SE,130,0.0,0.0,75,0.00,,,0.00,0,Wunderground v.1.15,2014-08-21 13:30:00,
2014-08-21 04:00:00,73.9,64.7,29.83,SE,130,0.0,0.0,73,0.00,,,0.00,0,Wunderground v.1.15,2014-08-21 14:00:00,
2014-08-21 04:30:00,74.0,64.4,29.84,SE,130,0.0,0.0,72,0.00,,,0.00,0,Wunderground v.1.15,2014-08-21 14:30:00,
2014-08-21 05:00:00,73.7,65.3,29.85,SE,130,0.0,0.0,75,0.00,,,0.00,0,Wunderground v.1.15,2014-08-21 15:00:00,
2014-08-21 05:30:00,72.5,63.7,29.85,SE,130,0.0,0.0,74,0.00,,,0.00,0,Wunderground v.1.15,2014-08-21 15:30:00,
2014-08-21 06:00:00,72.0,63.6,29.86,ESE,113,1.0,3.0,75,0.00,,,0.00,0,Wunderground v.1.15,2014-08-21 16:00:00,
2014-08-21 06:30:00,71.8,63.1,29.88,ESE,113,1.0,4.0,74,0.00,,,0.00,28,Wunderground v.1.15,2014-08-21 16:30:00,
2014-08-21 07:00:00,74.2,63.4,29.89,East,99,2.0,2.0,69,0.00,,,0.00,118,Wunderground v.1.15,2014-08-21 17:00:00,
2014-08-21 07:30:00,77.0,63.9,29.90,NE,46,2.0,6.0,64,0.00,,,0.00,234,Wunderground v.1.15,2014-08-21 17:30:00,
2014-08-21 08:00:00,79.6,65.0,29.89,ENE,67,2.0,2.0,61,0.00,,,0.00,352,Wunderground v.1.15,2014-08-21 18:00:00,
2014-08-21 08:30:00,81.1,65.9,29.90,NNE,22,2.0,3.0,60,0.00,,,0.00,455,Wunderground v.1.15,2014-08-21 18:30:00,
2014-08-21 09:00:00,81.4,66.7,29.90,NW,312,3.0,3.0,61,0.00,,,0.00,575,Wunderground v.1.15,2014-08-21 19:00:00,
2014-08-21 09:30:00,80.7,66.5,29.90,NW,313,3.0,3.0,62,0.00,,,0.00,207,Wunderground v.1.15,2014-08-21 19:30:00,
2014-08-21 10:00:00,82.4,67.1,29.90,NNW,343,4.0,12.0,60,0.00,,,0.00,814,Wunderground v.1.15,2014-08-21 20:00:00,
2014-08-21 10:30:00,83.4,67.6,29.90,NW,313,4.0,4.0,59,0.00,,,0.00,919,Wunderground v.1.15,2014-08-21 20:30:00,
2014-08-21 11:00:00,82.4,67.6,29.89,North,349,4.0,4.0,61,0.00,,,0.00,986,Wunderground v.1.15,2014-08-21 21:00:00,
2014-08-21 11:30:00,82.6,67.8,29.87,West,259,5.0,5.0,61,0.00,,,0.00,353,Wunderground v.1.15,2014-08-21 21:30:00,
2014-08-21 12:00:00,82.4,66.1,29.87,NNE,22,2.0,7.0,58,0.00,,,0.00,399,Wunderground v.1.15,2014-08-21 22:00:00,
2014-08-21 12:30:00,87.2,64.5,29.85,ENE,73,5.0,5.0,47,0.00,,,0.00,1099,Wunderground v.1.15,2014-08-21 22:30:00,
2014-08-21 13:00:00,86.1,64.1,29.84,NE,40,11.0,11.0,48,0.00,,,0.00,939,Wunderground v.1.15,2014-08-21 23:00:00,
2014-08-21 13:30:00,86.7,64.7,29.83,ENE,78,10.0,12.0,48,0.00,,,0.00,895,Wunderground v.1.15,2014-08-21 23:30:00,
2014-08-21 14:00:00,87.4,65.3,29.82,NNE,16,9.0,15.0,48,0.00,,,0.00,853,Wunderground v.1.15,2014-08-22 00:00:00,
2014-08-21 14:30:00,86.1,65.3,29.83,ENE,73,11.0,20.0,50,0.00,,,0.00,798,Wunderground v.1.15,2014-08-22 00:30:00,
2014-08-21 15:00:00,85.5,64.2,29.82,NE,38,13.0,16.0,49,0.00,,,0.00,721,Wunderground v.1.15,2014-08-22 01:00:00,
2014-08-21 15:30:00,85.1,63.8,29.81,NE,56,10.0,11.0,49,0.00,,,0.00,640,Wunderground v.1.15,2014-08-22 01:30:00,
2014-08-21 16:00:00,84.7,62.8,29.80,East,96,11.0,13.0,48,0.00,,,0.00,543,Wunderground v.1.15,2014-08-22 02:00:00,
2014-08-21 16:30:00,83.8,64.3,29.81,NE,43,12.0,13.0,52,0.00,,,0.00,445,Wunderground v.1.15,2014-08-22 02:30:00,
2014-08-21 17:00:00,83.4,64.5,29.81,ENE,71,11.0,11.0,53,0.00,,,0.00,322,Wunderground v.1.15,2014-08-22 03:00:00,
2014-08-21 17:30:00,81.6,64.4,29.82,North,350,11.0,16.0,56,0.00,,,0.00,220,Wunderground v.1.15,2014-08-22 03:30:00,
2014-08-21 18:00:00,80.5,63.9,29.82,NE,42,12.0,12.0,57,0.00,,,0.00,116,Wunderground v.1.15,2014-08-22 04:00:00,
2014-08-21 18:30:00,79.0,63.4,29.83,NE,37,11.0,11.0,59,0.00,,,0.00,14,Wunderground v.1.15,2014-08-22 04:30:00,